Time;durP1;ratioP1;P1;durP2;ratioP2;P2;SDS_P1;SDS_P2;PMS_P1;PMS_P2;Temp;Humidity;BMP_temperature;BMP_pressure;BME280_temperature;BME280_humidity;BME280_pressure;Samples;Min_cycle;Max_cycle;Signal;HPM_P1;HPM_P2
2022/06/01 00:00:10;;;;;;;4.10;1.40;;;;;;;;;;5105896;28;20052;-68
2022/06/01 00:02:36;;;;;;;3.38;1.40;;;;;;;;;;5109961;28;20027;-68
2022/06/01 00:05:01;;;;;;;3.92;1.60;;;;;;;;;;5104076;28;20040;-68
2022/06/01 00:07:26;;;;;;;3.55;1.60;;;;;;;;;;5110702;28;20027;-68
2022/06/01 00:09:54;;;;;;;3.33;1.50;;;;;;;;;;5107949;28;20028;-68
2022/06/01 00:12:19;;;;;;;4.50;1.80;;;;;;;;;;5108722;28;20054;-68
2022/06/01 00:14:45;;;;;;;4.45;1.67;;;;;;;;;;5110973;28;20447;-68
2022/06/01 00:17:10;;;;;;;3.60;1.70;;;;;;;;;;5088816;28;20032;-68
2022/06/01 00:19:35;;;;;;;5.35;1.83;;;;;;;;;;5096239;28;20028;-68
2022/06/01 00:22:12;;;;;;;3.13;1.60;;;;;;;;;;5103324;28;20027;-68
2022/06/01 00:24:38;;;;;;;4.38;1.65;;;;;;;;;;5104800;28;20020;-68
2022/06/01 00:27:04;;;;;;;5.50;1.60;;;;;;;;;;5110275;28;20036;-68
2022/06/01 00:29:29;;;;;;;3.97;1.77;;;;;;;;;;5106252;28;20028;-68
2022/06/01 00:31:55;;;;;;;4.32;1.92;;;;;;;;;;5104581;28;20018;-68
2022/06/01 00:34:20;;;;;;;6.43;1.75;;;;;;;;;;5101507;28;20023;-68
2022/06/01 00:36:45;;;;;;;4.40;1.80;;;;;;;;;;5104483;28;20127;-68
2022/06/01 00:39:10;;;;;;;3.00;1.50;;;;;;;;;;5100854;28;20046;-68
2022/06/01 00:41:35;;;;;;;3.58;1.77;;;;;;;;;;5104945;28;20035;-68
2022/06/01 00:44:01;;;;;;;5.78;1.65;;;;;;;;;;5105071;28;21124;-68
2022/06/01 00:46:26;;;;;;;3.28;1.95;;;;;;;;;;5104575;28;20019;-68
2022/06/01 00:48:53;;;;;;;3.10;1.50;;;;;;;;;;5108474;28;20032;-68
2022/06/01 00:51:21;;;;;;;5.70;1.60;;;;;;;;;;5103160;28;20383;-68
2022/06/01 00:53:48;;;;;;;2.92;1.50;;;;;;;;;;5108956;28;20434;-68
2022/06/01 00:56:19;;;;;;;2.40;1.42;;;;;;;;;;5108283;28;20115;-68
2022/06/01 00:58:45;;;;;;;2.38;1.50;;;;;;;;;;5111705;28;20016;-68
2022/06/01 01:01:11;;;;;;;3.30;1.50;;;;;;;;;;5104552;28;20371;-67
2022/06/01 01:03:40;;;;;;;3.53;1.70;;;;;;;;;;5108606;28;20039;-68
2022/06/01 01:06:14;;;;;;;4.32;1.92;;;;;;;;;;5104869;28;20102;-68
2022/06/01 01:08:40;;;;;;;4.15;1.58;;;;;;;;;;5102355;28;20039;-68
2022/06/01 01:11:10;;;;;;;6.18;2.58;;;;;;;;;;5100773;28;20073;-68
2022/06/01 01:13:35;;;;;;;3.55;1.90;;;;;;;;;;5108377;28;20475;-68
2022/06/01 01:16:01;;;;;;;4.05;1.70;;;;;;;;;;5111369;28;20040;-68
2022/06/01 01:18:28;;;;;;;4.13;1.52;;;;;;;;;;5103707;28;20023;-68
2022/06/01 01:21:01;;;;;;;2.60;1.60;;;;;;;;;;5104855;28;20024;-68
2022/06/01 01:23:40;;;;;;;6.35;1.90;;;;;;;;;;5105684;28;20114;-68
2022/06/01 01:26:06;;;;;;;2.83;1.80;;;;;;;;;;5103605;28;20121;-68
2022/06/01 01:28:31;;;;;;;4.95;1.90;;;;;;;;;;5111963;28;20471;-68
2022/06/01 01:31:02;;;;;;;3.70;1.75;;;;;;;;;;5104890;28;20035;-68
2022/06/01 01:33:29;;;;;;;3.10;1.88;;;;;;;;;;5109532;28;20019;-68
2022/06/01 01:35:55;;;;;;;3.08;1.75;;;;;;;;;;5113589;28;20081;-68
2022/06/01 01:38:40;;;;;;;5.40;1.83;;;;;;;;;;5104365;28;20051;-68
2022/06/01 01:41:06;;;;;;;3.17;1.60;;;;;;;;;;5110076;28;20028;-68
2022/06/01 01:43:33;;;;;;;6.32;1.92;;;;;;;;;;5106469;28;20040;-68
2022/06/01 01:45:58;;;;;;;2.83;1.85;;;;;;;;;;5107205;28;20024;-68
2022/06/01 01:48:23;;;;;;;3.95;1.80;;;;;;;;;;5102054;28;20383;-68
2022/06/01 01:50:49;;;;;;;3.90;1.58;;;;;;;;;;5108828;28;20058;-68
2022/06/01 01:53:15;;;;;;;5.43;1.60;;;;;;;;;;5107254;28;20020;-68
2022/06/01 01:56:00;;;;;;;3.92;1.63;;;;;;;;;;5108167;28;20090;-68
2022/06/01 01:58:29;;;;;;;2.55;1.60;;;;;;;;;;5104550;28;20055;-68
2022/06/01 02:01:02;;;;;;;4.75;1.80;;;;;;;;;;5112889;28;20047;-68
2022/06/01 02:03:34;;;;;;;4.63;1.90;;;;;;;;;;5104178;28;20214;-68
2022/06/01 02:06:07;;;;;;;3.30;1.80;;;;;;;;;;5088481;28;20675;-68
2022/06/01 02:08:46;;;;;;;6.05;1.80;;;;;;;;;;5107929;28;20032;-68
2022/06/01 02:14:01;;;;;;;2.60;1.75;;;;;;;;;;5101400;28;20082;-68
2022/06/01 02:16:28;;;;;;;3.92;1.70;;;;;;;;;;5105512;28;20135;-68
2022/06/01 02:18:55;;;;;;;3.42;1.92;;;;;;;;;;5112515;28;20027;-68
2022/06/01 02:21:24;;;;;;;4.57;1.90;;;;;;;;;;5111271;28;20076;-68
2022/06/01 02:23:49;;;;;;;5.18;2.20;;;;;;;;;;5106369;28;20044;-68
2022/06/01 02:26:15;;;;;;;3.35;1.65;;;;;;;;;;5106693;28;20031;-68
2022/06/01 02:28:41;;;;;;;5.18;1.92;;;;;;;;;;5103998;28;20016;-68
2022/06/01 02:31:07;;;;;;;4.50;1.88;;;;;;;;;;5105908;28;20054;-68
2022/06/01 02:33:33;;;;;;;4.75;1.90;;;;;;;;;;5100325;28;20419;-68
2022/06/01 02:35:59;;;;;;;4.70;2.10;;;;;;;;;;5105548;28;20081;-68
2022/06/01 02:38:30;;;;;;;5.05;1.85;;;;;;;;;;5106410;28;20052;-68
2022/06/01 02:40:55;;;;;;;2.78;1.52;;;;;;;;;;5107693;28;20439;-68
2022/06/01 02:43:20;;;;;;;4.28;2.15;;;;;;;;;;5105334;28;20115;-68
2022/06/01 02:45:46;;;;;;;3.85;1.83;;;;;;;;;;5104612;28;20103;-68
2022/06/01 02:48:11;;;;;;;4.45;1.83;;;;;;;;;;5109241;28;20084;-68
2022/06/01 02:50:37;;;;;;;6.30;1.83;;;;;;;;;;5105363;28;20021;-68
2022/06/01 02:53:03;;;;;;;4.15;1.83;;;;;;;;;;5106316;28;20161;-68
2022/06/01 02:55:29;;;;;;;4.15;1.95;;;;;;;;;;5111895;28;20375;-68
2022/06/01 02:57:54;;;;;;;6.32;2.00;;;;;;;;;;5105078;28;20081;-68
2022/06/01 03:00:28;;;;;;;5.15;2.22;;;;;;;;;;5107885;28;20458;-68
2022/06/01 03:02:58;;;;;;;5.00;2.15;;;;;;;;;;5100144;28;20517;-68
2022/06/01 03:05:25;;;;;;;3.60;1.77;;;;;;;;;;5107327;28;20024;-68
2022/06/01 03:07:50;;;;;;;4.03;1.98;;;;;;;;;;5109835;28;20127;-68
2022/06/01 03:10:16;;;;;;;4.20;1.90;;;;;;;;;;5104267;28;20514;-68
2022/06/01 03:12:41;;;;;;;3.65;1.88;;;;;;;;;;5106779;28;20092;-68
2022/06/01 03:15:07;;;;;;;4.25;1.92;;;;;;;;;;5103547;28;20032;-68
2022/06/01 03:17:33;;;;;;;3.95;2.00;;;;;;;;;;5112155;28;20027;-68
2022/06/01 03:19:59;;;;;;;3.42;1.90;;;;;;;;;;5098843;28;20531;-69
2022/06/01 03:22:24;;;;;;;4.80;2.10;;;;;;;;;;5088568;28;20541;-69
2022/06/01 03:24:49;;;;;;;3.45;2.38;;;;;;;;;;5104580;28;20016;-68
2022/06/01 03:27:14;;;;;;;7.32;2.60;;;;;;;;;;5105971;28;20038;-68
2022/06/01 03:29:40;;;;;;;3.30;1.80;;;;;;;;;;5105150;28;20052;-68
2022/06/01 03:32:06;;;;;;;3.80;1.92;;;;;;;;;;5100290;28;20076;-67
2022/06/01 03:34:31;;;;;;;4.07;2.35;;;;;;;;;;5100722;28;20020;-68
2022/06/01 03:36:57;;;;;;;4.53;2.25;;;;;;;;;;5105246;28;20043;-68
2022/06/01 03:39:22;;;;;;;5.22;2.05;;;;;;;;;;5110534;28;20020;-68
2022/06/01 03:41:47;;;;;;;5.68;2.05;;;;;;;;;;5107294;28;21387;-68
2022/06/01 03:47:00;;;;;;;4.15;2.20;;;;;;;;;;5107388;28;20031;-68
2022/06/01 03:49:25;;;;;;;6.28;2.40;;;;;;;;;;5107809;28;20062;-68
2022/06/01 03:51:50;;;;;;;6.43;1.98;;;;;;;;;;5104834;28;20043;-68
2022/06/01 03:54:16;;;;;;;5.43;2.22;;;;;;;;;;5103892;28;20093;-69
2022/06/01 03:56:42;;;;;;;4.97;2.38;;;;;;;;;;5108550;28;20107;-68
2022/06/01 03:59:07;;;;;;;4.00;2.58;;;;;;;;;;5101675;28;20019;-69
2022/06/01 04:01:32;;;;;;;5.03;2.20;;;;;;;;;;5107414;28;20023;-68
2022/06/01 04:03:58;;;;;;;3.65;2.13;;;;;;;;;;5108073;28;20442;-68
2022/06/01 04:06:23;;;;;;;6.32;2.25;;;;;;;;;;5106770;28;20020;-68
2022/06/01 04:08:48;;;;;;;3.72;2.15;;;;;;;;;;5102378;28;20030;-68
2022/06/01 04:11:13;;;;;;;4.20;2.58;;;;;;;;;;5104607;28;20032;-68
2022/06/01 04:13:39;;;;;;;5.85;2.28;;;;;;;;;;5105466;28;20016;-68
2022/06/01 04:16:04;;;;;;;5.43;2.35;;;;;;;;;;5104160;28;20366;-68
2022/06/01 04:18:29;;;;;;;6.88;2.33;;;;;;;;;;5109259;28;20467;-68
2022/06/01 04:20:55;;;;;;;4.43;2.47;;;;;;;;;;5110446;28;20519;-68
2022/06/01 04:23:20;;;;;;;3.90;2.42;;;;;;;;;;5111246;28;20031;-68
2022/06/01 04:25:45;;;;;;;6.65;2.25;;;;;;;;;;5108667;28;20034;-68
2022/06/01 04:28:11;;;;;;;7.85;2.28;;;;;;;;;;5106401;28;20019;-68
2022/06/01 04:30:36;;;;;;;5.25;2.58;;;;;;;;;;5101907;28;20390;-68
2022/06/01 04:33:02;;;;;;;4.72;2.60;;;;;;;;;;5111015;28;20467;-67
2022/06/01 04:35:27;;;;;;;4.55;2.40;;;;;;;;;;5107511;28;20054;-68
2022/06/01 04:37:52;;;;;;;4.30;2.40;;;;;;;;;;5107327;28;20072;-68
2022/06/01 04:40:19;;;;;;;4.88;2.38;;;;;;;;;;5110764;28;20034;-68
2022/06/01 04:42:44;;;;;;;4.35;2.15;;;;;;;;;;5110115;28;20031;-68
2022/06/01 04:45:11;;;;;;;3.95;2.30;;;;;;;;;;5109221;28;20019;-68
2022/06/01 04:47:37;;;;;;;3.92;2.42;;;;;;;;;;5110269;28;20406;-68
2022/06/01 04:50:02;;;;;;;4.40;2.53;;;;;;;;;;5106774;28;20034;-68
2022/06/01 04:52:27;;;;;;;8.27;2.45;;;;;;;;;;5107772;28;20023;-68
2022/06/01 04:54:52;;;;;;;5.07;2.13;;;;;;;;;;5105041;28;20490;-68
2022/06/01 04:57:18;;;;;;;7.88;2.50;;;;;;;;;;5089240;28;20371;-68
2022/06/01 04:59:43;;;;;;;7.38;2.25;;;;;;;;;;5112413;28;20467;-68
2022/06/01 05:02:08;;;;;;;6.50;2.30;;;;;;;;;;5110525;28;20472;-68
2022/06/01 05:04:34;;;;;;;3.13;2.13;;;;;;;;;;5102318;28;20016;-68
2022/06/01 05:07:00;;;;;;;5.45;2.70;;;;;;;;;;5108267;28;20023;-68
2022/06/01 05:09:26;;;;;;;4.43;2.75;;;;;;;;;;5101626;28;20024;-68
2022/06/01 05:11:51;;;;;;;3.22;2.22;;;;;;;;;;5105658;28;20024;-68
2022/06/01 05:14:16;;;;;;;4.65;1.92;;;;;;;;;;5106099;28;20149;-68
2022/06/01 05:16:41;;;;;;;5.40;1.63;;;;;;;;;;5105095;28;20066;-68
2022/06/01 05:19:07;;;;;;;2.80;2.00;;;;;;;;;;5106923;28;20111;-68
2022/06/01 05:21:32;;;;;;;4.60;2.30;;;;;;;;;;5107824;28;20036;-68
2022/06/01 05:23:58;;;;;;;3.60;2.05;;;;;;;;;;5105410;28;20035;-68
2022/06/01 05:26:24;;;;;;;5.22;2.17;;;;;;;;;;5106049;28;20016;-68
2022/06/01 05:28:49;;;;;;;2.92;1.83;;;;;;;;;;5110009;28;20030;-68
2022/06/01 05:31:14;;;;;;;6.00;1.83;;;;;;;;;;5107853;28;20092;-68
2022/06/01 05:33:43;;;;;;;2.72;1.67;;;;;;;;;;5108111;28;20413;-68
2022/06/01 05:36:08;;;;;;;4.53;2.00;;;;;;;;;;5105137;28;20415;-68
2022/06/01 05:38:33;;;;;;;3.28;1.75;;;;;;;;;;5105479;28;20027;-68
2022/06/01 05:40:59;;;;;;;3.72;2.00;;;;;;;;;;5106582;28;20024;-68
2022/06/01 05:43:24;;;;;;;9.52;1.83;;;;;;;;;;5111344;28;20106;-68
2022/06/01 05:45:50;;;;;;;3.15;1.80;;;;;;;;;;5108036;28;20526;-68
2022/06/01 05:48:16;;;;;;;2.67;1.60;;;;;;;;;;5112891;28;20444;-68
2022/06/01 05:50:42;;;;;;;4.57;1.85;;;;;;;;;;5111823;28;20153;-68
2022/06/01 05:53:07;;;;;;;6.13;2.15;;;;;;;;;;5100612;28;20114;-68
2022/06/01 05:55:35;;;;;;;2.95;1.70;;;;;;;;;;5103661;28;20048;-68
2022/06/01 05:58:00;;;;;;;2.72;1.65;;;;;;;;;;5110776;28;20408;-68
2022/06/01 06:00:25;;;;;;;3.17;2.05;;;;;;;;;;5105880;28;20499;-68
2022/06/01 06:02:50;;;;;;;3.17;1.70;;;;;;;;;;5109399;28;20028;-68
2022/06/01 06:07:59;;;;;;;4.15;1.70;;;;;;;;;;5105757;28;20066;-68
2022/06/01 06:10:25;;;;;;;4.45;1.52;;;;;;;;;;5106554;28;20106;-68
2022/06/01 06:12:51;;;;;;;3.70;1.65;;;;;;;;;;5110010;28;20024;-68
2022/06/01 06:15:16;;;;;;;5.25;1.63;;;;;;;;;;5112418;28;20527;-68
2022/06/01 06:17:42;;;;;;;4.65;1.50;;;;;;;;;;5105541;28;20450;-68
2022/06/01 06:20:07;;;;;;;2.58;1.40;;;;;;;;;;5110481;28;20034;-68
2022/06/01 06:22:33;;;;;;;3.80;1.70;;;;;;;;;;5099294;28;20382;-69
2022/06/01 06:24:59;;;;;;;4.90;1.67;;;;;;;;;;5101403;28;20458;-68
2022/06/01 06:27:26;;;;;;;3.33;1.50;;;;;;;;;;5103185;28;20028;-68
2022/06/01 06:29:52;;;;;;;3.03;1.30;;;;;;;;;;5100804;28;20421;-68
2022/06/01 06:32:17;;;;;;;2.45;1.40;;;;;;;;;;5106492;28;20020;-68
2022/06/01 06:34:42;;;;;;;3.17;1.50;;;;;;;;;;5103338;28;20099;-68
2022/06/01 06:37:07;;;;;;;2.92;1.50;;;;;;;;;;5099211;28;20123;-68
2022/06/01 06:39:33;;;;;;;3.65;1.30;;;;;;;;;;5104405;28;20031;-68
2022/06/01 06:41:58;;;;;;;2.78;1.70;;;;;;;;;;5107214;28;20402;-68
2022/06/01 06:44:23;;;;;;;2.80;1.50;;;;;;;;;;5105637;28;20118;-68
2022/06/01 06:46:48;;;;;;;2.75;1.50;;;;;;;;;;5107112;28;20465;-68
2022/06/01 06:49:13;;;;;;;2.47;1.55;;;;;;;;;;5109364;28;20526;-68
2022/06/01 06:51:39;;;;;;;5.88;1.40;;;;;;;;;;5103003;28;20501;-68
2022/06/01 06:54:04;;;;;;;3.40;1.52;;;;;;;;;;5107166;28;20387;-69
2022/06/01 06:56:29;;;;;;;2.63;1.20;;;;;;;;;;5106905;28;20387;-69
2022/06/01 06:58:54;;;;;;;2.58;1.48;;;;;;;;;;5089760;28;20372;-68
2022/06/01 07:01:20;;;;;;;2.92;1.30;;;;;;;;;;5105678;28;20036;-68
2022/06/01 07:03:45;;;;;;;4.00;1.58;;;;;;;;;;5105708;28;20119;-68
2022/06/01 07:06:13;;;;;;;4.22;1.30;;;;;;;;;;5091412;28;20089;-68
2022/06/01 07:08:43;;;;;;;3.50;1.55;;;;;;;;;;5104519;28;20016;-68
2022/06/01 07:11:09;;;;;;;2.47;1.30;;;;;;;;;;5107703;28;20399;-68
2022/06/01 07:13:35;;;;;;;2.67;1.42;;;;;;;;;;5103947;28;20016;-68
2022/06/01 07:16:11;;;;;;;4.88;1.30;;;;;;;;;;5107888;28;20019;-68
2022/06/01 07:18:38;;;;;;;2.95;1.45;;;;;;;;;;5103776;28;20035;-69
2022/06/01 07:21:03;;;;;;;3.10;1.05;;;;;;;;;;5110739;28;20016;-69
2022/06/01 07:23:29;;;;;;;2.72;1.10;;;;;;;;;;5102574;28;20054;-69
2022/06/01 07:25:54;;;;;;;2.78;1.20;;;;;;;;;;5107134;28;20023;-69
2022/06/01 07:28:21;;;;;;;2.13;1.00;;;;;;;;;;5109076;28;20513;-69
2022/06/01 07:30:49;;;;;;;2.47;1.10;;;;;;;;;;5100119;28;20060;-69
2022/06/01 07:33:14;;;;;;;2.35;0.95;;;;;;;;;;5101396;28;20036;-69
2022/06/01 07:35:39;;;;;;;1.90;0.90;;;;;;;;;;5098007;28;20043;-67
2022/06/01 07:43:32;;;;;;;1.52;0.90;;;;;;;;;;5102729;28;20511;-69
2022/06/01 07:45:57;;;;;;;2.90;1.00;;;;;;;;;;5099463;28;20052;-69
2022/06/01 07:48:22;;;;;;;2.90;1.00;;;;;;;;;;5099438;28;20355;-69
2022/06/01 07:50:50;;;;;;;1.67;0.90;;;;;;;;;;5096967;28;20452;-69
2022/06/01 07:53:16;;;;;;;2.08;1.15;;;;;;;;;;5095975;28;20101;-69
2022/06/01 07:55:42;;;;;;;1.75;0.90;;;;;;;;;;5098797;28;20032;-67
2022/06/01 07:58:07;;;;;;;3.85;1.10;;;;;;;;;;5109582;28;20016;-67
2022/06/01 08:00:32;;;;;;;1.13;0.70;;;;;;;;;;5096420;28;20042;-70
2022/06/01 08:02:57;;;;;;;1.67;0.98;;;;;;;;;;5107137;28;20042;-69
2022/06/01 08:05:23;;;;;;;1.70;1.00;;;;;;;;;;5101585;28;20031;-69
2022/06/01 08:07:49;;;;;;;1.52;0.80;;;;;;;;;;5109006;28;20584;-70
2022/06/01 08:10:15;;;;;;;2.22;1.20;;;;;;;;;;5108400;28;20032;-70
2022/06/01 08:15:26;;;;;;;2.17;0.70;;;;;;;;;;5099151;28;20047;-69
2022/06/01 08:17:51;;;;;;;3.33;0.75;;;;;;;;;;5104647;28;20027;-69
2022/06/01 08:20:16;;;;;;;1.98;1.05;;;;;;;;;;5095513;28;20490;-69
2022/06/01 08:22:42;;;;;;;1.77;0.70;;;;;;;;;;5102813;28;20075;-69
2022/06/01 08:25:09;;;;;;;1.70;0.80;;;;;;;;;;5099473;28;20036;-70
2022/06/01 08:27:34;;;;;;;1.88;1.00;;;;;;;;;;5096563;28;20040;-69
2022/06/01 08:29:59;;;;;;;3.17;0.93;;;;;;;;;;5099390;28;20053;-68
2022/06/01 08:32:24;;;;;;;3.05;0.80;;;;;;;;;;5099193;28;20032;-69
2022/06/01 08:34:50;;;;;;;1.63;0.70;;;;;;;;;;5096092;28;20020;-69
2022/06/01 08:37:15;;;;;;;2.42;0.80;;;;;;;;;;5111608;28;20115;-69
2022/06/01 08:39:40;;;;;;;2.15;1.20;;;;;;;;;;5106775;28;20052;-70
2022/06/01 08:42:11;;;;;;;2.28;0.90;;;;;;;;;;5108025;28;20030;-69
2022/06/01 08:44:37;;;;;;;5.20;1.10;;;;;;;;;;5105862;28;20032;-70
2022/06/01 08:47:07;;;;;;;4.72;0.85;;;;;;;;;;5091494;28;20043;-69
2022/06/01 08:49:33;;;;;;;1.98;0.70;;;;;;;;;;5104395;28;20027;-69
2022/06/01 08:51:59;;;;;;;2.03;0.90;;;;;;;;;;5103991;28;20031;-68
2022/06/01 08:54:24;;;;;;;7.95;1.20;;;;;;;;;;5091258;28;20355;-69
2022/06/01 08:56:50;;;;;;;2.08;1.08;;;;;;;;;;5102695;28;20071;-69
2022/06/01 08:59:22;;;;;;;2.72;1.10;;;;;;;;;;5100400;28;20020;-70
2022/06/01 09:01:56;;;;;;;4.13;1.13;;;;;;;;;;5101811;28;20057;-70
2022/06/01 09:04:40;;;;;;;2.08;0.90;;;;;;;;;;5085908;28;20458;-70
2022/06/01 09:07:05;;;;;;;1.38;0.70;;;;;;;;;;5095848;28;20036;-70
2022/06/01 09:09:42;;;;;;;1.50;0.65;;;;;;;;;;5101762;28;20111;-71
2022/06/01 09:12:07;;;;;;;22.30;2.35;;;;;;;;;;5097253;28;20088;-70
2022/06/01 09:14:34;;;;;;;3.28;0.90;;;;;;;;;;5111387;28;20055;-70
2022/06/01 09:17:01;;;;;;;2.08;0.85;;;;;;;;;;5101959;28;20070;-69
2022/06/01 09:19:29;;;;;;;2.70;0.82;;;;;;;;;;5111481;28;20116;-69
2022/06/01 09:24:41;;;;;;;4.80;0.80;;;;;;;;;;5110386;28;20551;-68
2022/06/01 09:27:09;;;;;;;2.33;0.85;;;;;;;;;;5110361;28;20031;-69
2022/06/01 09:29:45;;;;;;;2.88;0.70;;;;;;;;;;5098938;28;20030;-69
2022/06/01 09:32:30;;;;;;;2.30;0.75;;;;;;;;;;5112014;28;20089;-69
2022/06/01 09:35:04;;;;;;;1.63;0.77;;;;;;;;;;5097952;28;20016;-68
2022/06/01 09:37:33;;;;;;;3.75;1.08;;;;;;;;;;5109593;28;20079;-68
2022/06/01 09:40:00;;;;;;;1.33;0.90;;;;;;;;;;5109888;28;20074;-69
2022/06/01 09:42:28;;;;;;;1.88;0.90;;;;;;;;;;5112182;28;20106;-69
2022/06/01 09:44:58;;;;;;;6.63;2.75;;;;;;;;;;5111802;28;20045;-69
2022/06/01 09:47:27;;;;;;;2.72;0.80;;;;;;;;;;5104836;28;20035;-70
2022/06/01 09:49:54;;;;;;;1.27;0.60;;;;;;;;;;5109854;28;20447;-70
2022/06/01 09:52:24;;;;;;;1.33;0.73;;;;;;;;;;5096472;28;20028;-68
2022/06/01 09:54:54;;;;;;;6.22;1.00;;;;;;;;;;5106578;28;20399;-70
2022/06/01 09:57:32;;;;;;;2.53;0.80;;;;;;;;;;5112089;28;20027;-70
2022/06/01 10:06:05;;;;;;;0.50;0.40;;;;;;;;;;5104970;28;20124;-69
2022/06/01 10:06:13;;;;;;;1.48;0.60;;;;;;;;;;5100379;28;20067;-70
2022/06/01 10:08:42;;;;;;;1.98;0.70;;;;;;;;;;5099925;28;20111;-69
2022/06/01 10:11:17;;;;;;;0.93;0.60;;;;;;;;;;5097099;28;20113;-70
2022/06/01 10:13:50;;;;;;;2.53;0.70;;;;;;;;;;5102741;28;20424;-69
2022/06/01 10:16:35;;;;;;;2.53;0.80;;;;;;;;;;5100173;28;20047;-69
2022/06/01 10:19:01;;;;;;;3.05;0.80;;;;;;;;;;5102079;28;20509;-69
2022/06/01 10:21:28;;;;;;;1.65;0.80;;;;;;;;;;5106728;28;20039;-69
2022/06/01 10:23:57;;;;;;;2.85;0.80;;;;;;;;;;5105454;28;20040;-69
2022/06/01 10:26:36;;;;;;;1.20;0.77;;;;;;;;;;5105098;28;20024;-69
2022/06/01 10:29:12;;;;;;;6.95;1.00;;;;;;;;;;5102036;28;20027;-69
2022/06/01 10:31:39;;;;;;;2.47;0.80;;;;;;;;;;5110155;28;20475;-70
2022/06/01 10:34:15;;;;;;;1.48;0.70;;;;;;;;;;5101943;28;20043;-68
2022/06/01 10:36:45;;;;;;;1.95;0.70;;;;;;;;;;5098094;28;20048;-69
2022/06/01 10:39:23;;;;;;;2.08;0.80;;;;;;;;;;5094602;28;20032;-69
2022/06/01 10:42:03;;;;;;;4.07;0.70;;;;;;;;;;5096155;28;20024;-69
2022/06/01 10:44:29;;;;;;;1.80;0.70;;;;;;;;;;5098509;28;20391;-68
2022/06/01 10:47:03;;;;;;;1.55;0.73;;;;;;;;;;5094913;28;20019;-69
2022/06/01 10:49:33;;;;;;;1.20;0.60;;;;;;;;;;5108647;28;20433;-68
2022/06/01 10:51:58;;;;;;;1.60;0.70;;;;;;;;;;5107828;28;20053;-68
2022/06/01 10:54:28;;;;;;;1.05;0.65;;;;;;;;;;5106649;28;20023;-69
2022/06/01 10:56:55;;;;;;;1.15;0.70;;;;;;;;;;5104787;28;20030;-68
2022/06/01 10:59:21;;;;;;;1.35;0.60;;;;;;;;;;5107443;28;20379;-69
2022/06/01 11:02:04;;;;;;;1.33;0.77;;;;;;;;;;5100470;28;20024;-69
2022/06/01 11:04:30;;;;;;;;;;;;;;;;;;5107203;28;20054;-69
2022/06/01 11:07:14;;;;;;;1.73;0.60;;;;;;;;;;5099560;28;19907;-68
2022/06/01 11:09:39;;;;;;;2.55;0.60;;;;;;;;;;5103619;28;20126;-69
2022/06/01 11:12:08;;;;;;;0.73;0.60;;;;;;;;;;5098970;28;20087;-69
2022/06/01 11:14:42;;;;;;;0.70;0.60;;;;;;;;;;5108137;28;20383;-69
2022/06/01 11:17:17;;;;;;;0.88;0.60;;;;;;;;;;5087932;28;20116;-69
2022/06/01 11:20:02;;;;;;;1.80;0.70;;;;;;;;;;5102405;28;20062;-69
2022/06/01 11:22:39;;;;;;;1.13;0.60;;;;;;;;;;5110089;28;20030;-69
2022/06/01 11:25:04;;;;;;;1.92;0.70;;;;;;;;;;5099820;28;20031;-68
2022/06/01 11:27:48;;;;;;;1.17;0.50;;;;;;;;;;5101567;28;20076;-70
2022/06/01 11:30:17;;;;;;;0.57;0.50;;;;;;;;;;5098784;28;20409;-68
2022/06/01 11:33:03;;;;;;;0.98;0.60;;;;;;;;;;5105579;28;20509;-69
2022/06/01 11:35:35;;;;;;;0.65;0.50;;;;;;;;;;5100579;28;20055;-68
2022/06/01 11:38:04;;;;;;;1.65;0.50;;;;;;;;;;5097684;28;20730;-69
2022/06/01 11:40:42;;;;;;;0.80;0.60;;;;;;;;;;5095769;28;20189;-69
2022/06/01 11:43:30;;;;;;;0.50;0.50;;;;;;;;;;5101521;28;20043;-68
2022/06/01 11:45:55;;;;;;;0.65;0.50;;;;;;;;;;5090488;28;20080;-68
2022/06/01 11:48:22;;;;;;;0.77;0.60;;;;;;;;;;5097850;28;20465;-69
2022/06/01 11:51:10;;;;;;;0.75;0.52;;;;;;;;;;5106621;28;20337;-68
2022/06/01 11:53:41;;;;;;;0.77;0.60;;;;;;;;;;5101211;28;20084;-68
2022/06/01 11:56:25;;;;;;;3.35;0.60;;;;;;;;;;5108144;28;20040;-69
2022/06/01 11:58:50;;;;;;;;;;;;;;;;;;5106883;28;20047;-69
2022/06/01 12:01:30;;;;;;;6.95;0.70;;;;;;;;;;5075377;28;19903;-70
2022/06/01 12:04:11;;;;;;;0.50;0.50;;;;;;;;;;5094769;28;20028;-68
2022/06/01 12:06:42;;;;;;;9.40;1.23;;;;;;;;;;5100662;28;20064;-68
2022/06/01 12:09:13;;;;;;;0.90;0.60;;;;;;;;;;5094725;28;20028;-68
2022/06/01 12:11:38;;;;;;;6.63;0.60;;;;;;;;;;5097288;28;20017;-69
2022/06/01 12:14:18;;;;;;;0.70;0.50;;;;;;;;;;5099594;28;20027;-69
2022/06/01 12:16:44;;;;;;;0.50;0.50;;;;;;;;;;5096267;28;20563;-69
2022/06/01 12:19:13;;;;;;;2.17;0.50;;;;;;;;;;5094941;28;20040;-69
2022/06/01 12:21:41;;;;;;;0.50;0.50;;;;;;;;;;5093841;28;20044;-69
2022/06/01 12:30:10;;;;;;;8.85;1.30;;;;;;;;;;5090333;28;20093;-69
2022/06/01 12:33:03;;;;;;;3.33;1.02;;;;;;;;;;5099156;28;20028;-69
2022/06/01 12:35:32;;;;;;;4.40;0.80;;;;;;;;;;5089045;28;20043;-69
2022/06/01 12:38:03;;;;;;;4.78;0.80;;;;;;;;;;5105483;28;20246;-69
2022/06/01 12:40:29;;;;;;;1.80;1.00;;;;;;;;;;5100904;28;20997;-69
2022/06/01 12:42:58;;;;;;;2.28;1.00;;;;;;;;;;5097963;28;20040;-69
2022/06/01 12:45:35;;;;;;;2.42;1.13;;;;;;;;;;5101470;28;20463;-69
2022/06/01 12:48:07;;;;;;;1.55;0.80;;;;;;;;;;5107876;28;20400;-69
2022/06/01 12:50:44;;;;;;;2.03;0.80;;;;;;;;;;5106873;28;20367;-69
2022/06/01 12:53:12;;;;;;;1.17;0.70;;;;;;;;;;5111710;28;20019;-69
2022/06/01 12:55:38;;;;;;;1.75;0.75;;;;;;;;;;5103693;28;20030;-69
2022/06/01 12:58:08;;;;;;;2.33;1.00;;;;;;;;;;5096823;28;20024;-68
2022/06/01 13:00:36;;;;;;;0.60;0.50;;;;;;;;;;5097127;28;20099;-68
2022/06/01 13:03:09;;;;;;;2.00;0.88;;;;;;;;;;5111621;28;20069;-69
2022/06/01 13:05:40;;;;;;;2.15;0.98;;;;;;;;;;5108027;28;20085;-69
2022/06/01 13:08:08;;;;;;;2.80;0.80;;;;;;;;;;5108130;28;20038;-69
2022/06/01 13:10:35;;;;;;;8.75;1.00;;;;;;;;;;5102125;28;20024;-68
2022/06/01 13:13:05;;;;;;;3.75;0.88;;;;;;;;;;5101457;28;20040;-68
2022/06/01 13:15:31;;;;;;;1.05;0.60;;;;;;;;;;5105953;28;20027;-69
2022/06/01 13:17:57;;;;;;;3.97;0.80;;;;;;;;;;5107509;28;20020;-69
2022/06/01 13:20:31;;;;;;;0.95;0.60;;;;;;;;;;5104600;28;20103;-69
2022/06/01 13:22:57;;;;;;;2.25;0.63;;;;;;;;;;5106111;28;20464;-68
2022/06/01 13:25:25;;;;;;;1.48;0.70;;;;;;;;;;5107455;28;20027;-69
2022/06/01 13:27:50;;;;;;;1.17;0.60;;;;;;;;;;5093829;28;20090;-69
2022/06/01 13:30:16;;;;;;;0.40;0.40;;;;;;;;;;5092668;28;20509;-69
2022/06/01 13:32:43;;;;;;;0.98;0.60;;;;;;;;;;5092407;28;20024;-69
2022/06/01 13:35:17;;;;;;;0.52;0.50;;;;;;;;;;5098826;28;20032;-69
2022/06/01 13:37:43;;;;;;;2.25;0.68;;;;;;;;;;5104672;28;20024;-69
2022/06/01 13:40:20;;;;;;;2.97;0.80;;;;;;;;;;5101089;28;20039;-69
2022/06/01 13:42:59;;;;;;;1.45;0.70;;;;;;;;;;5092479;28;20067;-69
2022/06/01 13:45:41;;;;;;;2.40;0.88;;;;;;;;;;5108586;28;21091;-69
2022/06/01 13:48:13;;;;;;;2.53;0.80;;;;;;;;;;5109430;28;20023;-68
2022/06/01 13:50:41;;;;;;;1.98;0.90;;;;;;;;;;5098749;28;20024;-68
2022/06/01 13:53:11;;;;;;;1.98;0.80;;;;;;;;;;5107248;28;20107;-69
2022/06/01 13:55:53;;;;;;;2.95;0.88;;;;;;;;;;5102830;28;20055;-68
2022/06/01 13:58:20;;;;;;;1.92;1.00;;;;;;;;;;5099085;28;20078;-68
2022/06/01 14:00:47;;;;;;;3.65;1.00;;;;;;;;;;5109556;28;20032;-68
2022/06/01 14:03:15;;;;;;;2.92;1.33;;;;;;;;;;5097301;28;20076;-68
2022/06/01 14:05:42;;;;;;;1.95;0.90;;;;;;;;;;5093195;28;20043;-68
2022/06/01 14:08:09;;;;;;;2.15;0.90;;;;;;;;;;5106045;28;20043;-68
2022/06/01 14:10:36;;;;;;;2.15;0.80;;;;;;;;;;5104530;28;20077;-69
2022/06/01 14:13:02;;;;;;;2.60;0.95;;;;;;;;;;5104713;28;20112;-69
2022/06/01 14:15:27;;;;;;;1.92;1.00;;;;;;;;;;5093959;28;20103;-69
2022/06/01 14:17:52;;;;;;;1.83;0.70;;;;;;;;;;5107728;28;20445;-68
2022/06/01 14:20:18;;;;;;;2.53;1.00;;;;;;;;;;5100259;28;20070;-68
2022/06/01 14:22:44;;;;;;;1.40;0.82;;;;;;;;;;5100900;28;20177;-69
2022/06/01 14:30:38;;;;;;;2.55;0.80;;;;;;;;;;5096030;28;20074;-69
2022/06/01 14:33:05;;;;;;;1.38;0.70;;;;;;;;;;5093634;28;20059;-68
2022/06/01 14:35:31;;;;;;;1.95;0.88;;;;;;;;;;5104964;28;20101;-68
2022/06/01 14:37:56;;;;;;;2.40;0.77;;;;;;;;;;5099557;28;20040;-69
2022/06/01 14:40:22;;;;;;;1.40;0.75;;;;;;;;;;5096341;28;20033;-69
2022/06/01 14:42:47;;;;;;;2.22;0.90;;;;;;;;;;5091361;28;20111;-69
2022/06/01 14:45:14;;;;;;;4.15;1.02;;;;;;;;;;5101817;28;20368;-68
2022/06/01 14:47:39;;;;;;;2.10;0.88;;;;;;;;;;5101681;28;20039;-69
2022/06/01 14:50:05;;;;;;;2.70;0.80;;;;;;;;;;5095660;28;20027;-68
2022/06/01 14:52:30;;;;;;;1.45;0.90;;;;;;;;;;5097577;28;20459;-68
2022/06/01 14:54:55;;;;;;;1.13;0.70;;;;;;;;;;5094739;28;20106;-68
2022/06/01 14:57:21;;;;;;;2.15;0.80;;;;;;;;;;5101791;28;20420;-69
2022/06/01 14:59:46;;;;;;;2.90;0.70;;;;;;;;;;5100120;28;20098;-68
2022/06/01 15:02:13;;;;;;;2.00;0.73;;;;;;;;;;5099541;28;20027;-69
2022/06/01 15:04:39;;;;;;;2.05;0.80;;;;;;;;;;5079239;28;20032;-69
2022/06/01 15:07:05;;;;;;;1.08;0.65;;;;;;;;;;5103721;28;20450;-68
2022/06/01 15:09:32;;;;;;;1.75;0.70;;;;;;;;;;5107823;28;20042;-69
2022/06/01 15:11:57;;;;;;;0.88;0.60;;;;;;;;;;5100273;28;20964;-69
2022/06/01 15:14:22;;;;;;;2.08;0.73;;;;;;;;;;5107773;28;20019;-69
2022/06/01 15:16:52;;;;;;;2.85;0.68;;;;;;;;;;5090444;28;20035;-69
2022/06/01 15:19:18;;;;;;;2.28;0.75;;;;;;;;;;5098582;28;20035;-68
2022/06/01 15:21:44;;;;;;;0.93;0.60;;;;;;;;;;5104719;28;20423;-68